createdAt,value
2022-09-20T00:03:23.298Z,9.45
2022-09-20T00:08:26.106Z,9.46
2022-09-20T00:13:30.102Z,9.45
2022-09-20T00:18:32.931Z,9.45
2022-09-20T00:23:36.656Z,9.43
2022-09-20T00:28:39.660Z,9.42
2022-09-20T00:34:01.201Z,9.40
2022-09-20T00:39:04.350Z,9.34
2022-09-20T00:44:41.627Z,9.24
2022-09-20T00:49:44.760Z,9.17
2022-09-20T00:54:49.070Z,9.18
2022-09-20T00:59:53.047Z,9.21
2022-09-20T01:04:57.766Z,9.26
2022-09-20T01:10:00.645Z,9.30
2022-09-20T01:15:05.975Z,9.29
2022-09-20T01:20:14.850Z,9.21
2022-09-20T01:25:45.611Z,9.14
2022-09-20T01:31:00.294Z,9.14
2022-09-20T01:36:06.343Z,9.18
2022-09-20T01:41:20.642Z,9.18
2022-09-20T01:46:34.580Z,9.16
2022-09-20T01:51:56.653Z,9.12
2022-09-20T01:57:08.363Z,9.07
2022-09-20T02:02:34.370Z,9.04
2022-09-20T02:07:59.145Z,9.03
2022-09-20T02:13:11.553Z,9.00
2022-09-20T02:18:26.670Z,8.99
2022-09-20T02:23:30.066Z,9.00
2022-09-20T02:28:58.972Z,9.01
2022-09-20T02:34:13.856Z,9.03
2022-09-20T02:39:35.505Z,9.03
2022-09-20T02:44:50.283Z,9.05
2022-09-20T02:50:01.452Z,9.10
2022-09-20T02:55:25.480Z,9.17
2022-09-20T03:00:40.040Z,9.21
2022-09-20T03:05:45.424Z,9.22
2022-09-20T03:11:12.491Z,9.21
2022-09-20T03:16:51.911Z,9.18
2022-09-20T03:22:02.329Z,9.14
2022-09-20T03:27:31.960Z,9.10
2022-09-20T03:32:40.807Z,9.03
2022-09-20T03:38:02.118Z,8.97
2022-09-20T03:43:26.350Z,8.92
2022-09-20T03:48:47.576Z,8.91
2022-09-20T03:54:08.915Z,8.95
2022-09-20T03:59:32.097Z,8.97
2022-09-20T04:04:44.828Z,8.98
2022-09-20T04:10:18.760Z,8.99
2022-09-20T04:15:43.591Z,8.95
2022-09-20T04:21:17.541Z,8.92
2022-09-20T04:26:28.501Z,8.90
2022-09-20T04:31:54.530Z,8.88
2022-09-20T04:37:02.872Z,8.86
2022-09-20T04:42:11.625Z,8.87
2022-09-20T04:47:55.997Z,8.90
2022-09-20T04:53:04.429Z,8.95
2022-09-20T04:58:37.747Z,8.97
2022-09-20T05:03:55.498Z,9.04
2022-09-20T05:09:29.329Z,9.12
2022-09-20T05:14:47.286Z,9.20
2022-09-20T05:20:24.494Z,9.26
2022-09-20T05:25:42.142Z,9.32
2022-09-20T05:30:48.085Z,9.39
2022-09-20T05:36:12.737Z,9.47
2022-09-20T05:41:37.487Z,9.60
2022-09-20T05:46:46.088Z,9.74
2022-09-20T05:51:59.436Z,9.86
2022-09-20T05:57:39.108Z,10.01
2022-09-20T06:02:44.770Z,10.15
2022-09-20T06:08:03.818Z,10.20
2022-09-20T06:13:31.644Z,10.28
2022-09-20T06:18:34.457Z,10.42
2022-09-20T06:23:37.551Z,10.58
2022-09-20T06:28:45.731Z,10.93
2022-09-20T06:34:03.195Z,11.32
2022-09-20T06:40:02.520Z,11.58
2022-09-20T06:45:05.972Z,11.89
2022-09-20T06:50:16.514Z,12.28
2022-09-20T06:55:29.008Z,12.92
2022-09-20T07:00:32.291Z,13.19
2022-09-20T07:05:36.443Z,13.25
2022-09-20T07:10:39.843Z,13.50
2022-09-20T07:15:43.268Z,13.90
2022-09-20T07:20:46.468Z,14.64
2022-09-20T07:25:49.382Z,16.25
2022-09-20T07:30:52.277Z,17.39
2022-09-20T07:35:56.146Z,17.66
2022-09-20T07:41:02.377Z,17.94
2022-09-20T07:46:06.221Z,17.65
2022-09-20T07:51:13.005Z,17.41
2022-09-20T07:56:18.851Z,17.13
2022-09-20T08:01:22.912Z,16.99
2022-09-20T08:06:27.045Z,16.88
2022-09-20T08:11:30.969Z,16.38
2022-09-20T08:16:38.775Z,16.11
2022-09-20T08:21:41.796Z,16.60
2022-09-20T08:26:45.946Z,16.76
2022-09-20T08:31:49.103Z,16.99
2022-09-20T08:36:56.687Z,17.18
2022-09-20T08:42:15.323Z,17.44
2022-09-20T08:47:23.774Z,17.63
2022-09-20T08:52:36.649Z,17.72
2022-09-20T08:57:40.012Z,17.51
2022-09-20T09:02:42.913Z,17.09
2022-09-20T09:07:47.150Z,16.68
2022-09-20T09:12:51.181Z,16.62
2022-09-20T09:17:54.126Z,16.62
2022-09-20T09:23:06.975Z,16.58
2022-09-20T09:28:09.723Z,16.15
2022-09-20T09:33:30.219Z,15.99
2022-09-20T09:38:36.419Z,16.25
2022-09-20T09:43:40.612Z,16.33
2022-09-20T09:48:47.668Z,16.23
2022-09-20T09:53:51.686Z,15.85
2022-09-20T09:59:17.358Z,15.76
2022-09-20T10:04:43.167Z,15.95
2022-09-20T10:10:04.450Z,16.17
2022-09-20T10:15:36.970Z,16.19
2022-09-20T10:21:13.796Z,16.24
2022-09-20T10:26:26.636Z,16.40
2022-09-20T10:31:45.106Z,16.42
2022-09-20T10:36:55.936Z,16.38
2022-09-20T10:42:36.788Z,16.56
2022-09-20T10:48:09.488Z,16.61
2022-09-20T10:53:31.141Z,16.43
2022-09-20T10:59:12.864Z,16.38
2022-09-20T11:04:18.414Z,16.02
2022-09-20T11:09:27.270Z,15.72
2022-09-20T11:14:41.250Z,15.77
2022-09-20T11:19:56.830Z,16.26
2022-09-20T11:25:47.493Z,16.74
2022-09-20T11:30:56.405Z,16.98
2022-09-20T11:36:06.771Z,16.91
2022-09-20T11:41:15.612Z,16.75
2022-09-20T11:46:28.041Z,16.56
2022-09-20T11:51:52.793Z,16.48
2022-09-20T11:56:57.929Z,16.46
2022-09-20T12:02:05.349Z,16.72
2022-09-20T12:07:18.253Z,16.86
2022-09-20T12:12:44.148Z,17.11
2022-09-20T12:17:47.009Z,17.30
2022-09-20T12:22:50.327Z,17.32
2022-09-20T12:27:53.120Z,17.14
2022-09-20T12:33:03.613Z,17.20
2022-09-20T12:38:21.562Z,17.43
2022-09-20T12:43:29.422Z,17.65
2022-09-20T12:48:37.299Z,17.64
2022-09-20T12:53:40.616Z,17.46
2022-09-20T12:58:54.779Z,17.39
2022-09-20T13:04:40.488Z,17.49
2022-09-20T13:09:44.515Z,17.40
2022-09-20T13:14:48.143Z,17.06
2022-09-20T13:19:53.092Z,16.92
2022-09-20T13:25:07.486Z,16.87
2022-09-20T13:30:22.246Z,16.77
2022-09-20T13:35:32.471Z,17.12
2022-09-20T13:40:36.800Z,17.31
2022-09-20T13:45:43.722Z,16.92
2022-09-20T13:50:52.753Z,16.27
2022-09-20T13:55:56.837Z,15.75
2022-09-20T14:01:06.396Z,15.52
2022-09-20T14:06:15.298Z,15.33
2022-09-20T14:11:31.166Z,15.16
2022-09-20T14:16:39.377Z,14.93
2022-09-20T14:21:43.673Z,14.90
2022-09-20T14:27:21.130Z,14.84
2022-09-20T14:32:35.913Z,14.51
2022-09-20T14:37:48.454Z,14.23
2022-09-20T14:43:03.598Z,14.00
2022-09-20T14:48:26.402Z,-13.86
2022-09-20T14:53:29.826Z,13.64
2022-09-20T14:58:34.483Z,13.54
2022-09-20T15:03:41.309Z,13.47
2022-09-20T15:08:46.783Z,13.42
2022-09-20T15:13:49.934Z,13.42
2022-09-20T15:18:52.737Z,13.36
2022-09-20T15:23:55.638Z,13.24
2022-09-20T15:28:58.851Z,13.17
2022-09-20T15:34:01.753Z,13.09
2022-09-20T15:39:05.276Z,13.01
2022-09-20T15:44:08.484Z,12.90
2022-09-20T15:49:12.512Z,12.73
2022-09-20T15:54:15.732Z,12.50
2022-09-20T15:59:21.804Z,12.29
2022-09-20T16:04:27.270Z,12.13
2022-09-20T16:09:30.886Z,12.04
2022-09-20T16:14:36.656Z,12.03
2022-09-20T16:19:40.429Z,12.01
2022-09-20T16:24:43.698Z,11.93
2022-09-20T16:29:47.702Z,11.82
2022-09-20T16:34:51.426Z,11.65
2022-09-20T16:39:54.338Z,11.45
2022-09-20T16:44:57.459Z,11.27
2022-09-20T16:50:00.574Z,11.09
2022-09-20T16:55:05.138Z,10.91
2022-09-20T17:00:10.718Z,10.74
2022-09-20T17:05:14.400Z,10.58
2022-09-20T17:10:17.304Z,10.46
2022-09-20T17:15:20.223Z,10.39
2022-09-20T17:20:30.999Z,10.37
2022-09-20T17:25:33.902Z,10.33
2022-09-20T17:30:36.807Z,10.33
2022-09-20T17:35:39.715Z,10.35
2022-09-20T17:40:43.422Z,10.40
2022-09-20T17:45:46.233Z,10.41
2022-09-20T17:50:58.152Z,10.44
2022-09-20T17:56:02.248Z,10.48
2022-09-20T18:01:12.800Z,10.49
2022-09-20T18:06:18.950Z,10.46
2022-09-20T18:11:27.349Z,10.37
2022-09-20T18:16:33.711Z,10.25
2022-09-20T18:21:39.368Z,10.12
2022-09-20T18:26:42.337Z,10.05
2022-09-20T18:31:50.684Z,10.07
2022-09-20T18:36:56.236Z,10.15
2022-09-20T18:42:00.231Z,10.20
2022-09-20T18:47:05.016Z,10.20
2022-09-20T18:52:10.890Z,10.21
2022-09-20T18:57:15.660Z,10.17
2022-09-20T19:03:11.171Z,10.07
2022-09-20T19:08:53.807Z,9.95
2022-09-20T19:14:29.390Z,9.83
2022-09-20T19:19:51.225Z,9.75
2022-09-20T19:25:03.560Z,9.73
2022-09-20T19:30:07.707Z,9.71
2022-09-20T19:35:28.474Z,9.72
2022-09-20T19:41:18.312Z,9.77
2022-09-20T19:46:37.006Z,9.87
2022-09-20T19:51:43.044Z,9.98
2022-09-20T19:56:58.835Z,10.09
2022-09-20T20:02:02.701Z,10.16
2022-09-20T20:07:27.706Z,10.19
2022-09-20T20:12:38.305Z,10.19
2022-09-20T20:18:12.254Z,10.15
2022-09-20T20:23:32.955Z,10.11
2022-09-20T20:28:36.950Z,10.11
2022-09-20T20:33:40.195Z,10.15
2022-09-20T20:38:52.441Z,10.18
2022-09-20T20:43:56.453Z,10.19
2022-09-20T20:48:59.454Z,10.18
2022-09-20T20:54:04.882Z,10.11
2022-09-20T20:59:07.929Z,10.03
2022-09-20T21:04:11.545Z,9.94
2022-09-20T21:09:14.350Z,9.86
2022-09-20T21:14:17.360Z,9.82
2022-09-20T21:19:21.079Z,9.84
2022-09-20T21:24:23.982Z,9.90
2022-09-20T21:29:26.783Z,9.94
2022-09-20T21:34:29.686Z,9.96
2022-09-20T21:39:32.489Z,9.95
2022-09-20T21:44:35.394Z,9.90
2022-09-20T21:49:38.604Z,9.81
2022-09-20T21:54:42.542Z,9.74
2022-09-20T21:59:45.334Z,9.70
2022-09-20T22:04:48.259Z,9.68
2022-09-20T22:09:51.038Z,9.65
2022-09-20T22:14:53.842Z,9.58
2022-09-20T22:19:57.050Z,9.50
2022-09-20T22:24:59.852Z,9.45
2022-09-20T22:30:05.117Z,9.38
2022-09-20T22:35:08.977Z,9.31
2022-09-20T22:40:11.865Z,9.25
2022-09-20T22:45:14.763Z,9.19
2022-09-20T22:50:17.652Z,9.17
2022-09-20T22:55:20.552Z,9.19
2022-09-20T23:00:23.559Z,9.21
2022-09-20T23:05:27.662Z,9.18
2022-09-20T23:10:30.494Z,9.13
2022-09-20T23:15:33.914Z,9.11
2022-09-20T23:20:36.814Z,9.09
2022-09-20T23:25:39.719Z,9.10
2022-09-20T23:30:42.649Z,9.08
2022-09-20T23:35:46.044Z,9.05
2022-09-20T23:40:48.843Z,9.01
2022-09-20T23:45:51.783Z,8.95
2022-09-20T23:50:55.262Z,8.91
2022-09-20T23:55:58.369Z,8.91
